Time;durP1;ratioP1;P1;durP2;ratioP2;P2;SDS_P1;SDS_P2;PMS_P1;PMS_P2;Temp;Humidity;BMP_temperature;BMP_pressure;BME280_temperature;BME280_humidity;BME280_pressure;Samples;Min_cycle;Max_cycle;Signal;HPM_P1;HPM_P2
2023/06/10 00:00:14;;;;;;;7.97;6.17;;;18.80;99.90;;;;;;5115468;28;20205;-42
2023/06/10 00:02:41;;;;;;;9.37;6.07;;;18.70;99.90;;;;;;5115427;28;20242;-44
2023/06/10 00:05:08;;;;;;;6.20;5.60;;;18.70;99.90;;;;;;5115488;28;20198;-43
2023/06/10 00:07:37;;;;;;;10.40;6.30;;;18.70;99.90;;;;;;5115430;28;20181;-41
2023/06/10 00:10:07;;;;;;;7.37;6.27;;;18.60;99.90;;;;;;5115398;28;20174;-43
2023/06/10 00:12:37;;;;;;;9.40;6.37;;;18.50;99.90;;;;;;5115337;28;20173;-41
2023/06/10 00:15:05;;;;;;;9.13;6.20;;;18.50;99.90;;;;;;5114992;28;20295;-42
2023/06/10 00:17:31;;;;;;;13.83;5.90;;;18.50;99.90;;;;;;5115001;28;20189;-41
2023/06/10 00:19:57;;;;;;;9.47;6.23;;;18.40;99.90;;;;;;5114975;28;20186;-42
2023/06/10 00:22:24;;;;;;;8.53;6.50;;;18.40;99.90;;;;;;5114757;28;20213;-41
2023/06/10 00:24:50;;;;;;;10.30;6.57;;;18.40;99.90;;;;;;5115115;28;20190;-42
2023/06/10 00:27:16;;;;;;;8.43;6.07;;;18.40;99.90;;;;;;5115116;28;20177;-43
2023/06/10 00:29:42;;;;;;;7.53;6.10;;;18.30;99.90;;;;;;5114876;28;20549;-42
2023/06/10 00:32:07;;;;;;;8.97;6.17;;;18.30;99.90;;;;;;5115345;28;20582;-43
2023/06/10 00:34:33;;;;;;;11.87;6.47;;;18.20;99.90;;;;;;5114679;28;20202;-41
2023/06/10 00:36:58;;;;;;;8.07;6.60;;;18.20;99.90;;;;;;5114424;28;20193;-41
2023/06/10 00:39:24;;;;;;;11.57;7.13;;;18.20;99.90;;;;;;5114891;28;20622;-42
2023/06/10 00:41:49;;;;;;;8.50;6.40;;;18.10;99.90;;;;;;5114561;28;20275;-41
2023/06/10 00:44:16;;;;;;;7.23;6.50;;;18.10;99.90;;;;;;5114521;28;20190;-41
2023/06/10 00:46:42;;;;;;;9.23;6.57;;;18.10;99.90;;;;;;5114713;28;20166;-42
2023/06/10 00:49:08;;;;;;;12.77;6.27;;;18.00;99.90;;;;;;5114457;28;20234;-43
2023/06/10 00:51:36;;;;;;;7.67;6.43;;;18.00;99.90;;;;;;5114646;28;20183;-43
2023/06/10 00:54:01;;;;;;;17.40;7.20;;;17.90;99.90;;;;;;5114216;28;20205;-43
2023/06/10 00:56:28;;;;;;;14.20;6.97;;;17.80;99.90;;;;;;5113034;28;20186;-41
2023/06/10 00:58:54;;;;;;;12.13;6.57;;;17.80;99.90;;;;;;5114535;28;20217;-44
2023/06/10 01:01:20;;;;;;;11.30;6.77;;;17.80;99.90;;;;;;5114455;28;20182;-42
2023/06/10 01:03:45;;;;;;;7.40;5.97;;;17.70;99.90;;;;;;5114038;28;20209;-42
2023/06/10 01:06:29;;;;;;;7.07;6.20;;;17.70;99.90;;;;;;5114563;28;20206;-42
2023/06/10 01:09:18;;;;;;;10.13;6.80;;;17.60;99.90;;;;;;5114633;28;20163;-43
2023/06/10 01:11:49;;;;;;;12.53;6.60;;;17.60;99.90;;;;;;5114112;28;20232;-42
2023/06/10 01:14:16;;;;;;;12.67;6.40;;;17.60;99.90;;;;;;5114172;28;20216;-42
2023/06/10 01:16:42;;;;;;;13.37;6.33;;;17.50;99.90;;;;;;5114049;28;20726;-43
2023/06/10 01:19:08;;;;;;;8.90;6.43;;;17.40;99.90;;;;;;5112796;28;20293;-41
2023/06/10 01:21:33;;;;;;;11.00;6.80;;;17.40;99.90;;;;;;5113917;28;20197;-43
2023/06/10 01:23:59;;;;;;;11.73;6.70;;;17.40;99.90;;;;;;5114038;28;20222;-41
2023/06/10 01:26:32;;;;;;;11.63;6.30;;;17.30;99.90;;;;;;5114177;28;20188;-43
2023/06/10 01:29:04;;;;;;;13.40;7.07;;;17.30;99.90;;;;;;5113806;28;20665;-45
2023/06/10 01:31:54;;;;;;;8.73;6.53;;;17.30;99.90;;;;;;5114125;28;20565;-43
2023/06/10 01:34:23;;;;;;;8.63;6.50;;;17.30;99.90;;;;;;5113894;28;20657;-42
2023/06/10 01:36:50;;;;;;;10.77;6.70;;;17.20;99.90;;;;;;5113894;28;20186;-42
2023/06/10 01:39:18;;;;;;;8.93;6.60;;;17.20;99.90;;;;;;5114051;28;20201;-43
2023/06/10 01:41:45;;;;;;;7.00;6.30;;;17.20;99.90;;;;;;5113943;28;20200;-42
2023/06/10 01:44:11;;;;;;;11.37;6.93;;;17.10;99.90;;;;;;5113998;28;20251;-42
2023/06/10 01:46:36;;;;;;;8.33;7.03;;;17.10;99.90;;;;;;5113710;28;20256;-42
2023/06/10 01:49:02;;;;;;;9.40;6.67;;;17.00;99.90;;;;;;5113943;28;20182;-43
2023/06/10 01:51:27;;;;;;;11.80;7.77;;;17.00;99.90;;;;;;5113967;28;20686;-42
2023/06/10 01:53:53;;;;;;;10.33;7.03;;;17.00;99.90;;;;;;5113719;28;20202;-42
2023/06/10 01:56:19;;;;;;;13.57;7.10;;;17.00;99.90;;;;;;5113650;28;20214;-42
2023/06/10 01:58:48;;;;;;;13.67;6.80;;;16.90;99.90;;;;;;5114035;28;20186;-42
2023/06/10 02:01:14;;;;;;;12.53;6.97;;;16.90;99.90;;;;;;5114338;28;20557;-44
2023/06/10 02:03:40;;;;;;;11.17;6.87;;;16.90;99.90;;;;;;5113882;28;20602;-42
2023/06/10 02:06:06;;;;;;;10.57;7.23;;;16.90;99.90;;;;;;5113874;28;20179;-43
2023/06/10 02:08:31;;;;;;;10.57;7.23;;;16.80;99.90;;;;;;5113599;28;20213;-41
2023/06/10 02:10:57;;;;;;;15.17;7.57;;;16.80;99.90;;;;;;5113605;28;20210;-44
2023/06/10 02:13:22;;;;;;;14.27;6.60;;;16.70;99.90;;;;;;5113389;28;20210;-41
2023/06/10 02:15:48;;;;;;;20.03;7.93;;;16.70;99.90;;;;;;5116346;28;20174;-44
2023/06/10 02:18:13;;;;;;;15.57;7.67;;;16.70;99.90;;;;;;5117732;28;20257;-42
2023/06/10 02:20:39;;;;;;;14.33;7.37;;;16.70;99.90;;;;;;5117457;28;20185;-42
2023/06/10 02:23:05;;;;;;;17.07;7.50;;;16.70;99.90;;;;;;5117935;28;20202;-43
2023/06/10 02:25:30;;;;;;;16.73;7.70;;;16.70;99.90;;;;;;5117573;28;20186;-44
2023/06/10 02:27:56;;;;;;;15.20;7.03;;;16.60;99.90;;;;;;5117278;28;20177;-44
2023/06/10 02:30:22;;;;;;;12.83;7.73;;;16.60;99.90;;;;;;5117537;28;20182;-43
2023/06/10 02:32:47;;;;;;;16.07;7.40;;;16.60;99.90;;;;;;5117495;28;20182;-43
2023/06/10 02:35:17;;;;;;;10.20;6.93;;;16.50;99.90;;;;;;5117125;28;20205;-40
2023/06/10 02:37:43;;;;;;;16.20;7.60;;;16.50;99.90;;;;;;5118139;28;20632;-43
2023/06/10 02:40:10;;;;;;;11.17;7.17;;;16.40;99.90;;;;;;5117470;28;20217;-42
2023/06/10 02:42:36;;;;;;;8.03;6.80;;;16.40;99.90;;;;;;5117091;28;20200;-42
2023/06/10 02:45:01;;;;;;;11.90;7.83;;;16.40;99.90;;;;;;5116990;28;20195;-42
2023/06/10 02:47:27;;;;;;;10.67;7.60;;;16.30;99.90;;;;;;5117195;28;20257;-43
2023/06/10 02:49:52;;;;;;;14.57;7.73;;;16.20;99.90;;;;;;5117207;28;20217;-43
2023/06/10 02:52:18;;;;;;;15.23;7.10;;;16.20;99.90;;;;;;5116898;28;20193;-42
2023/06/10 02:54:44;;;;;;;8.17;6.70;;;16.10;99.90;;;;;;5117145;28;20210;-49
2023/06/10 02:57:10;;;;;;;14.00;7.57;;;16.10;99.90;;;;;;5116918;28;20197;-49
2023/06/10 02:59:36;;;;;;;9.33;6.93;;;16.10;99.90;;;;;;5116920;28;20217;-48
2023/06/10 03:02:01;;;;;;;12.10;7.37;;;16.00;99.90;;;;;;5116647;28;20210;-49
2023/06/10 03:04:28;;;;;;;13.47;8.07;;;16.00;99.90;;;;;;5116528;28;20619;-49
2023/06/10 03:06:54;;;;;;;12.13;6.87;;;15.90;99.90;;;;;;5116767;28;20239;-48
2023/06/10 03:09:20;;;;;;;19.90;7.67;;;15.80;99.90;;;;;;5116435;28;20635;-48
2023/06/10 03:11:46;;;;;;;16.53;7.83;;;15.90;99.90;;;;;;5116445;28;20170;-48
2023/06/10 03:14:11;;;;;;;12.13;7.73;;;15.80;99.90;;;;;;5116303;28;20198;-49
2023/06/10 03:16:40;;;;;;;11.07;7.33;;;15.80;99.90;;;;;;5116392;28;20311;-50
2023/06/10 03:19:07;;;;;;;12.83;7.40;;;15.80;99.90;;;;;;5116541;28;20530;-48
2023/06/10 03:21:33;;;;;;;12.00;7.67;;;15.80;99.90;;;;;;5116523;28;20182;-48
2023/06/10 03:23:59;;;;;;;11.23;7.03;;;15.80;99.90;;;;;;5116427;28;20224;-48
2023/06/10 03:26:27;;;;;;;12.30;6.67;;;15.80;99.90;;;;;;5116070;28;20178;-48
2023/06/10 03:28:53;;;;;;;12.27;7.33;;;15.70;99.90;;;;;;5116342;28;20185;-48
2023/06/10 03:31:18;;;;;;;13.47;8.17;;;15.70;99.90;;;;;;5114928;28;20282;-49
2023/06/10 03:33:44;;;;;;;12.57;7.47;;;15.60;99.90;;;;;;5116099;28;20696;-49
2023/06/10 03:36:10;;;;;;;13.90;7.13;;;15.60;99.90;;;;;;5116314;28;20188;-49
2023/06/10 03:38:36;;;;;;;12.73;7.07;;;15.50;99.90;;;;;;5115823;28;20665;-49
2023/06/10 03:41:02;;;;;;;11.40;7.97;;;15.50;99.90;;;;;;5115822;28;20212;-49
2023/06/10 03:43:27;;;;;;;12.07;7.43;;;15.50;99.90;;;;;;5115651;28;20210;-49
2023/06/10 03:45:53;;;;;;;11.90;7.27;;;15.50;99.90;;;;;;5115806;28;20231;-49
2023/06/10 03:48:19;;;;;;;10.37;7.30;;;15.50;99.90;;;;;;5115849;28;20227;-47
2023/06/10 03:50:44;;;;;;;8.97;7.43;;;15.40;99.90;;;;;;5116201;28;20177;-48
2023/06/10 03:53:10;;;;;;;12.33;8.57;;;15.40;99.90;;;;;;5115813;28;20189;-48
2023/06/10 03:55:36;;;;;;;10.40;7.20;;;15.40;99.90;;;;;;5116001;28;20182;-48
2023/06/10 03:58:02;;;;;;;11.77;6.93;;;15.40;99.90;;;;;;5116442;28;20213;-47
2023/06/10 04:00:28;;;;;;;21.63;7.83;;;15.40;99.90;;;;;;5116497;28;20217;-48
2023/06/10 04:02:57;;;;;;;14.27;7.93;;;15.40;99.90;;;;;;5118286;28;20209;-48
2023/06/10 04:05:23;;;;;;;12.93;7.73;;;15.40;99.90;;;;;;5115752;28;20628;-48
2023/06/10 04:07:49;;;;;;;13.10;8.07;;;15.40;99.90;;;;;;5115584;28;20634;-48
2023/06/10 04:10:15;;;;;;;17.07;8.73;;;15.40;99.90;;;;;;5115646;28;20174;-48
2023/06/10 04:12:41;;;;;;;10.17;7.73;;;15.40;99.90;;;;;;5115416;28;20208;-48
2023/06/10 04:15:07;;;;;;;16.70;7.27;;;15.50;99.90;;;;;;5115546;28;20571;-46
2023/06/10 04:17:33;;;;;;;13.23;8.30;;;15.50;99.90;;;;;;5115371;28;20178;-46
2023/06/10 04:20:00;;;;;;;12.07;7.20;;;15.50;99.90;;;;;;5115681;28;20189;-46
2023/06/10 04:22:26;;;;;;;10.80;7.27;;;15.50;99.90;;;;;;5115178;28;20247;-46
2023/06/10 04:24:52;;;;;;;14.07;8.43;;;15.60;99.90;;;;;;5115435;28;20597;-46
2023/06/10 04:27:17;;;;;;;11.60;7.80;;;15.60;99.90;;;;;;5115027;28;20210;-46
2023/06/10 04:29:43;;;;;;;12.03;7.90;;;15.50;99.90;;;;;;5114922;28;20174;-47
2023/06/10 04:32:08;;;;;;;12.33;7.67;;;15.60;99.90;;;;;;5115240;28;20256;-47
2023/06/10 04:34:34;;;;;;;13.20;7.67;;;15.60;99.90;;;;;;5114798;28;20662;-47
2023/06/10 04:37:00;;;;;;;14.20;8.57;;;15.60;99.90;;;;;;5115222;28;20190;-47
2023/06/10 04:39:26;;;;;;;12.93;8.03;;;15.70;99.90;;;;;;5114386;28;20202;-46
2023/06/10 04:41:51;;;;;;;15.13;8.80;;;15.70;99.90;;;;;;5114791;28;20186;-47
2023/06/10 04:44:17;;;;;;;14.53;8.73;;;15.70;99.90;;;;;;5115180;28;20202;-46
2023/06/10 04:46:42;;;;;;;13.17;8.10;;;15.80;99.90;;;;;;5114988;28;20189;-47
2023/06/10 04:49:08;;;;;;;10.50;8.30;;;15.80;99.90;;;;;;5115125;28;20529;-47
2023/06/10 04:51:34;;;;;;;15.13;8.80;;;15.80;99.90;;;;;;5114562;28;20174;-46
2023/06/10 04:54:03;;;;;;;22.00;9.23;;;15.90;99.90;;;;;;5114383;28;20277;-47
2023/06/10 04:56:30;;;;;;;17.33;9.03;;;15.90;99.90;;;;;;5114583;28;20205;-48
2023/06/10 04:58:56;;;;;;;19.00;9.10;;;16.00;99.90;;;;;;5114901;28;20574;-48
2023/06/10 05:01:22;;;;;;;16.43;8.77;;;16.00;99.90;;;;;;5114525;28;20542;-47
2023/06/10 05:03:47;;;;;;;15.87;9.40;;;16.10;99.90;;;;;;5114764;28;20218;-47
2023/06/10 05:06:13;;;;;;;15.17;8.90;;;16.20;99.90;;;;;;5114369;28;20177;-45
2023/06/10 05:08:39;;;;;;;18.73;9.53;;;16.20;99.90;;;;;;5114403;28;20219;-48
2023/06/10 05:11:04;;;;;;;16.83;9.73;;;16.30;99.90;;;;;;5116036;28;20181;-48
2023/06/10 05:13:30;;;;;;;14.63;10.07;;;16.40;99.90;;;;;;5115403;28;20286;-46
2023/06/10 05:15:55;;;;;;;22.33;10.80;;;16.50;99.90;;;;;;5115570;28;20186;-48
2023/06/10 05:18:21;;;;;;;20.97;11.03;;;16.60;99.90;;;;;;5115453;28;20230;-47
2023/06/10 05:20:46;;;;;;;18.20;11.17;;;16.60;99.90;;;;;;5114519;28;20261;-48
2023/06/10 05:23:12;;;;;;;25.73;10.90;;;16.80;99.90;;;;;;5113929;28;20216;-49
2023/06/10 05:25:38;;;;;;;18.83;10.73;;;16.90;99.90;;;;;;5113972;28;20203;-48
2023/06/10 05:28:03;;;;;;;22.83;10.67;;;17.10;99.90;;;;;;5114963;28;20689;-46
2023/06/10 05:30:29;;;;;;;25.07;10.73;;;17.30;99.90;;;;;;5114151;28;20638;-48
2023/06/10 05:32:56;;;;;;;22.50;10.23;;;17.40;99.90;;;;;;5114368;28;20178;-48
2023/06/10 05:35:21;;;;;;;18.27;10.30;;;17.60;99.90;;;;;;5114040;28;20254;-47
2023/06/10 05:37:47;;;;;;;23.17;11.13;;;17.70;99.90;;;;;;5113866;28;20194;-49
2023/06/10 05:40:13;;;;;;;19.10;10.10;;;17.90;99.90;;;;;;5113977;28;20239;-44
2023/06/10 05:42:38;;;;;;;19.20;10.20;;;18.00;99.90;;;;;;5113942;28;20571;-40
2023/06/10 05:45:06;;;;;;;20.80;10.53;;;18.20;99.90;;;;;;5115043;28;20585;-43
2023/06/10 05:47:31;;;;;;;23.57;10.43;;;18.30;99.90;;;;;;5113986;28;20186;-42
2023/06/10 05:49:57;;;;;;;16.87;10.10;;;18.40;99.90;;;;;;5114958;28;20178;-44
2023/06/10 05:52:22;;;;;;;27.03;9.63;;;18.50;99.90;;;;;;5118125;28;20602;-44
2023/06/10 05:54:49;;;;;;;25.83;10.27;;;18.60;99.90;;;;;;5118116;28;20198;-43
2023/06/10 05:57:15;;;;;;;19.57;10.17;;;18.80;99.90;;;;;;5117913;28;20170;-42
2023/06/10 05:59:41;;;;;;;29.13;9.60;;;18.90;99.90;;;;;;5117818;28;20170;-40
2023/06/10 06:02:06;;;;;;;22.67;9.63;;;19.10;99.90;;;;;;5118003;28;20550;-43
2023/06/10 06:04:32;;;;;;;24.33;8.83;;;19.30;99.90;;;;;;5118005;28;20297;-43
2023/06/10 06:06:58;;;;;;;21.37;9.63;;;19.40;99.90;;;;;;5117698;28;20202;-43
2023/06/10 06:09:23;;;;;;;19.13;9.10;;;19.60;99.90;;;;;;5117560;28;20178;-43
2023/06/10 06:11:49;;;;;;;16.77;9.00;;;19.80;99.90;;;;;;5117887;28;20665;-43
2023/06/10 06:14:14;;;;;;;18.57;8.80;;;19.90;99.90;;;;;;5117573;28;20673;-42
2023/06/10 06:16:40;;;;;;;16.00;9.43;;;20.00;99.90;;;;;;5117646;28;20673;-43
2023/06/10 06:19:05;;;;;;;21.47;9.13;;;20.20;99.90;;;;;;5117514;28;20174;-45
2023/06/10 06:21:31;;;;;;;13.20;8.67;;;20.30;99.90;;;;;;5117470;28;20174;-44
2023/06/10 06:23:57;;;;;;;18.40;8.53;;;20.40;99.90;;;;;;5117582;28;20221;-45
2023/06/10 06:26:23;;;;;;;17.07;8.97;;;20.60;99.90;;;;;;5117365;27;20179;-42
2023/06/10 06:28:48;;;;;;;14.47;8.30;;;20.70;99.90;;;;;;5117387;28;20231;-46
2023/06/10 06:31:14;;;;;;;16.80;8.93;;;20.90;99.90;;;;;;5117723;28;20706;-43
2023/06/10 06:33:40;;;;;;;14.73;7.87;;;21.00;99.90;;;;;;5117368;28;20230;-43
2023/06/10 06:36:05;;;;;;;16.00;7.80;;;21.10;99.90;;;;;;5117521;28;20256;-42
2023/06/10 06:38:31;;;;;;;15.73;8.13;;;21.40;99.90;;;;;;5116886;28;20225;-46
2023/06/10 06:41:02;;;;;;;12.37;7.13;;;21.60;99.90;;;;;;5117196;28;20179;-44
2023/06/10 06:43:28;;;;;;;13.93;7.20;;;21.90;99.90;;;;;;5116862;28;20567;-42
2023/06/10 06:45:53;;;;;;;13.63;7.67;;;22.10;99.90;;;;;;5117024;28;20186;-42
2023/06/10 06:48:19;;;;;;;15.43;7.10;;;22.30;99.90;;;;;;5116898;28;20181;-44
2023/06/10 06:50:45;;;;;;;13.20;6.73;;;22.60;99.90;;;;;;5117182;28;20174;-43
2023/06/10 06:53:10;;;;;;;12.80;6.93;;;22.70;99.90;;;;;;5116786;28;20630;-44
2023/06/10 06:55:36;;;;;;;11.80;6.70;;;22.90;99.90;;;;;;5117030;28;20509;-44
2023/06/10 06:58:03;;;;;;;15.67;7.40;;;23.00;99.90;;;;;;5117326;28;20311;-41
2023/06/10 07:00:29;;;;;;;8.87;7.03;;;23.20;99.90;;;;;;5116370;28;20244;-43
2023/06/10 07:02:56;;;;;;;19.50;6.50;;;23.30;99.90;;;;;;5116578;28;20193;-43
2023/06/10 07:05:22;;;;;;;12.43;6.47;;;23.30;99.90;;;;;;5116481;28;20791;-43
2023/06/10 07:07:53;;;;;;;13.53;6.73;;;23.60;99.90;;;;;;5116581;28;20223;-42
2023/06/10 07:10:20;;;;;;;14.97;6.30;;;23.80;99.90;;;;;;5116795;28;20192;-44
2023/06/10 07:12:45;;;;;;;17.30;6.73;;;24.00;99.90;;;;;;5116365;28;20658;-44
2023/06/10 07:15:11;;;;;;;11.23;6.17;;;24.10;99.90;;;;;;5116423;28;20251;-44
2023/06/10 07:17:36;;;;;;;8.33;5.53;;;24.10;99.90;;;;;;5116816;28;20178;-42
2023/06/10 07:20:02;;;;;;;10.43;6.00;;;24.20;99.90;;;;;;5116301;28;20178;-43
2023/06/10 07:22:28;;;;;;;12.17;5.83;;;24.40;99.90;;;;;;5116192;28;20280;-45
2023/06/10 07:24:55;;;;;;;7.23;5.10;;;24.50;99.90;;;;;;5116205;28;20708;-44
2023/06/10 07:27:20;;;;;;;7.13;5.13;;;24.60;99.90;;;;;;5116394;28;20185;-44
2023/06/10 07:29:46;;;;;;;7.10;4.93;;;24.80;99.90;;;;;;5116173;28;20175;-42
2023/06/10 07:32:12;;;;;;;7.00;5.47;;;24.90;99.90;;;;;;5116278;28;20419;-46
2023/06/10 07:34:37;;;;;;;7.87;5.17;;;24.90;99.90;;;;;;5115970;28;20269;-44
2023/06/10 07:37:03;;;;;;;7.33;5.27;;;25.10;99.90;;;;;;5115806;28;20189;-44
2023/06/10 07:39:28;;;;;;;6.10;5.13;;;25.20;99.90;;;;;;5115979;28;20167;-45
2023/06/10 07:41:56;;;;;;;7.83;5.07;;;25.20;99.90;;;;;;5115821;28;20646;-44
2023/06/10 07:44:22;;;;;;;8.40;5.13;;;25.40;99.90;;;;;;5116787;28;20201;-43
2023/06/10 07:46:48;;;;;;;8.30;4.93;;;25.50;99.90;;;;;;5116004;28;20178;-44
2023/06/10 07:49:13;;;;;;;5.60;4.43;;;25.70;99.90;;;;;;5116123;28;20650;-43
2023/06/10 07:51:39;;;;;;;7.17;5.00;;;25.80;99.90;;;;;;5116212;28;20177;-43
2023/06/10 07:54:05;;;;;;;6.97;5.10;;;25.90;99.90;;;;;;5116005;28;20269;-43
2023/06/10 07:56:31;;;;;;;6.93;5.10;;;26.00;99.90;;;;;;5116456;28;20197;-43
2023/06/10 07:58:57;;;;;;;6.13;4.63;;;26.00;99.90;;;;;;5116345;28;20174;-45
2023/06/10 08:01:23;;;;;;;5.70;5.20;;;26.20;99.90;;;;;;5115891;28;20178;-45
2023/06/10 08:03:49;;;;;;;6.40;5.20;;;26.30;99.90;;;;;;5114325;28;20217;-45
2023/06/10 08:06:16;;;;;;;6.20;5.07;;;26.40;99.90;;;;;;5116435;28;20537;-45
2023/06/10 08:08:43;;;;;;;9.87;5.40;;;26.40;99.90;;;;;;5116108;28;20178;-44
2023/06/10 08:11:11;;;;;;;7.90;5.43;;;26.60;99.90;;;;;;5116022;28;20211;-42
2023/06/10 08:13:37;;;;;;;7.47;5.00;;;26.60;99.90;;;;;;5114806;28;20246;-43
2023/06/10 08:16:03;;;;;;;10.03;5.30;;;26.60;99.90;;;;;;5115882;28;20269;-43
2023/06/10 08:18:28;;;;;;;10.37;5.50;;;26.70;99.90;;;;;;5115749;28;20193;-44
2023/06/10 08:20:55;;;;;;;6.03;4.90;;;26.70;99.90;;;;;;5115634;28;20175;-44
2023/06/10 08:23:20;;;;;;;8.93;5.23;;;26.80;99.90;;;;;;5115633;28;20182;-45
2023/06/10 08:25:46;;;;;;;9.27;5.20;;;26.80;99.90;;;;;;5115984;28;20224;-44
2023/06/10 08:28:11;;;;;;;9.97;5.27;;;26.70;99.90;;;;;;5115281;28;20174;-44
2023/06/10 08:30:37;;;;;;;7.83;4.90;;;26.80;99.90;;;;;;5115380;28;20253;-46
2023/06/10 08:33:02;;;;;;;6.53;5.07;;;26.90;99.90;;;;;;5115493;28;20178;-44
2023/06/10 08:35:28;;;;;;;7.33;4.93;;;27.00;99.90;;;;;;5115276;28;20182;-45
2023/06/10 08:37:53;;;;;;;6.37;5.40;;;27.20;99.90;;;;;;5115344;28;20201;-45
2023/06/10 08:40:19;;;;;;;7.33;5.83;;;27.20;99.90;;;;;;5115044;28;20257;-44
2023/06/10 08:43:06;;;;;;;9.57;5.07;;;27.20;99.90;;;;;;5115302;28;20237;-45
2023/06/10 08:45:35;;;;;;;5.60;5.10;;;27.20;99.90;;;;;;5114786;28;20165;-45
2023/06/10 08:48:06;;;;;;;10.30;5.57;;;27.30;99.90;;;;;;5115654;28;20193;-45
2023/06/10 08:50:34;;;;;;;6.33;4.87;;;27.30;99.90;;;;;;5114771;28;20162;-46
2023/06/10 08:53:01;;;;;;;8.00;5.23;;;27.40;99.90;;;;;;5114716;28;20226;-46
2023/06/10 08:55:31;;;;;;;9.65;5.68;;;27.60;99.90;;;;;;5115107;28;20185;-45
2023/06/10 08:57:58;;;;;;;11.73;5.30;;;27.80;99.90;;;;;;5115044;28;20201;-45
2023/06/10 09:00:25;;;;;;;15.73;5.88;;;27.90;99.90;;;;;;5115132;28;20312;-46
2023/06/10 09:02:51;;;;;;;9.68;5.15;;;27.80;99.90;;;;;;5114846;28;20205;-45
2023/06/10 09:05:17;;;;;;;12.98;5.97;;;27.90;99.90;;;;;;5114303;28;20190;-46
2023/06/10 09:07:45;;;;;;;7.90;5.07;;;28.00;99.90;;;;;;5114407;28;20736;-45
2023/06/10 09:10:11;;;;;;;12.75;5.53;;;28.00;99.90;;;;;;5114797;28;20189;-46
2023/06/10 09:12:40;;;;;;;10.27;5.38;;;28.00;99.90;;;;;;5114554;28;20254;-45
2023/06/10 09:15:07;;;;;;;9.77;5.35;;;28.10;99.90;;;;;;5114767;28;20202;-51
2023/06/10 09:17:32;;;;;;;14.65;6.07;;;28.20;99.90;;;;;;5114456;28;20186;-50
2023/06/10 09:20:02;;;;;;;9.05;6.07;;;28.40;99.90;;;;;;5114553;28;20258;-51
2023/06/10 09:22:28;;;;;;;6.32;5.18;;;28.50;99.90;;;;;;5114155;28;20217;-51
2023/06/10 09:25:08;;;;;;;7.55;5.15;;;28.60;99.90;;;;;;5114052;28;20194;-51
2023/06/10 09:27:50;;;;;;;10.32;5.70;;;28.50;99.90;;;;;;5114194;28;20615;-51
2023/06/10 09:30:34;;;;;;;8.07;5.80;;;28.50;99.90;;;;;;5114715;28;20162;-50
2023/06/10 09:33:03;;;;;;;11.07;5.43;;;28.50;99.90;;;;;;5114496;28;20624;-51
2023/06/10 09:35:30;;;;;;;8.07;5.68;;;28.50;99.90;;;;;;5113869;28;20178;-51
2023/06/10 09:38:00;;;;;;;8.73;5.05;;;28.50;99.90;;;;;;5113582;28;20238;-51
2023/06/10 09:40:27;;;;;;;8.20;5.55;;;28.50;99.90;;;;;;5114064;28;20193;-51
2023/06/10 09:42:58;;;;;;;14.57;5.88;;;28.60;99.90;;;;;;5113938;28;20224;-51
2023/06/10 09:45:29;;;;;;;6.78;5.28;;;28.80;99.90;;;;;;5113936;28;20204;-51
2023/06/10 09:47:55;;;;;;;10.00;6.20;;;29.00;99.90;;;;;;5113715;28;20170;-51
2023/06/10 09:50:21;;;;;;;7.15;4.95;;;29.10;99.90;;;;;;5113932;28;20174;-51
2023/06/10 09:52:50;;;;;;;7.70;5.68;;;29.00;99.90;;;;;;5113824;28;20178;-52
2023/06/10 09:55:16;;;;;;;6.78;5.15;;;29.00;99.90;;;;;;5113571;28;20236;-51
2023/06/10 09:57:44;;;;;;;9.52;4.70;;;28.90;99.90;;;;;;5114165;28;20170;-51
2023/06/10 10:00:11;;;;;;;8.60;5.72;;;28.90;99.90;;;;;;5113796;28;20613;-52
2023/06/10 10:02:48;;;;;;;7.93;5.05;;;29.00;99.90;;;;;;5114271;28;20292;-52
2023/06/10 10:05:18;;;;;;;6.25;5.65;;;29.30;99.90;;;;;;5112176;28;20193;-52
2023/06/10 10:07:44;;;;;;;6.70;5.10;;;29.30;99.90;;;;;;5113481;28;20197;-51
2023/06/10 10:10:11;;;;;;;7.60;5.80;;;29.20;99.90;;;;;;5113704;28;20267;-51
2023/06/10 10:12:41;;;;;;;6.78;4.65;;;29.20;99.90;;;;;;5113479;28;20158;-52
2023/06/10 10:15:08;;;;;;;9.02;5.20;;;29.30;99.90;;;;;;5113469;28;20197;-52
2023/06/10 10:17:37;;;;;;;9.50;5.35;;;29.30;99.90;;;;;;5113586;28;20694;-51
2023/06/10 10:20:05;;;;;;;7.32;5.05;;;29.50;99.90;;;;;;5113623;28;20609;-52
2023/06/10 10:22:39;;;;;;;6.80;5.07;;;29.50;99.90;;;;;;5113050;28;20237;-51
2023/06/10 10:25:16;;;;;;;10.70;5.82;;;29.70;99.90;;;;;;5113314;28;20186;-52
2023/06/10 10:27:54;;;;;;;8.55;5.50;;;29.90;99.90;;;;;;5113401;28;20164;-51
2023/06/10 10:30:21;;;;;;;11.23;5.47;;;30.10;99.90;;;;;;5113340;28;20159;-51
2023/06/10 10:33:12;;;;;;;7.50;5.65;;;30.20;99.90;;;;;;5113212;28;20213;-52
2023/06/10 10:35:38;;;;;;;9.30;5.25;;;30.30;99.90;;;;;;5113678;28;20256;-52
2023/06/10 10:38:05;;;;;;;11.25;5.40;;;30.40;99.90;;;;;;5117028;28;20190;-52
2023/06/10 10:40:32;;;;;;;7.03;5.75;;;30.50;99.90;;;;;;5117022;28;20186;-52
2023/06/10 10:42:59;;;;;;;7.03;5.18;;;30.40;99.90;;;;;;5117062;28;20238;-51
2023/06/10 10:45:28;;;;;;;6.53;5.30;;;30.50;99.90;;;;;;5116349;28;20198;-52
2023/06/10 10:47:56;;;;;;;9.82;6.28;;;30.50;99.90;;;;;;5117139;28;20175;-51
2023/06/10 10:50:22;;;;;;;7.18;6.00;;;30.60;99.90;;;;;;5117545;28;20646;-49
2023/06/10 10:52:53;;;;;;;13.45;6.32;;;30.60;99.90;;;;;;5117805;28;20646;-53
2023/06/10 10:55:20;;;;;;;12.30;5.97;;;30.70;99.90;;;;;;5116886;28;20269;-52
2023/06/10 10:57:54;;;;;;;10.00;6.05;;;30.80;99.90;;;;;;5116570;28;20171;-52
2023/06/10 11:00:29;;;;;;;8.77;5.80;;;30.80;99.90;;;;;;5116606;28;20254;-51
2023/06/10 11:03:07;;;;;;;7.50;6.10;;;30.70;99.40;;;;;;5116725;28;20205;-52
2023/06/10 11:05:47;;;;;;;9.80;5.03;;;30.70;99.90;;;;;;5116829;28;20165;-52
2023/06/10 11:08:14;;;;;;;6.32;5.72;;;30.90;99.90;;;;;;5116505;28;20618;-52
2023/06/10 11:10:41;;;;;;;10.77;5.95;;;31.00;99.90;;;;;;5116404;28;20634;-51
2023/06/10 11:13:13;;;;;;;10.50;5.90;;;31.10;99.90;;;;;;5116644;28;20189;-52
2023/06/10 11:15:51;;;;;;;11.20;6.05;;;31.20;99.90;;;;;;5116618;28;20181;-52
2023/06/10 11:18:24;;;;;;;14.02;6.22;;;31.30;99.90;;;;;;5116475;27;20162;-52
2023/06/10 11:20:50;;;;;;;7.50;6.05;;;31.40;99.90;;;;;;5116109;27;20713;-53
2023/06/10 11:23:33;;;;;;;8.23;5.57;;;31.50;99.90;;;;;;5116258;28;20284;-53
2023/06/10 11:26:14;;;;;;;8.90;5.30;;;31.70;99.90;;;;;;5116096;28;20147;-52
2023/06/10 11:28:41;;;;;;;6.45;5.40;;;31.70;99.90;;;;;;5116060;28;20227;-52
2023/06/10 11:31:08;;;;;;;7.70;5.82;;;31.80;99.90;;;;;;5116252;28;20163;-52
2023/06/10 11:33:38;;;;;;;13.85;5.03;;;31.90;99.90;;;;;;5116510;28;20634;-52
2023/06/10 11:36:07;;;;;;;10.00;5.60;;;31.90;99.90;;;;;;5115994;28;20202;-52
2023/06/10 11:38:33;;;;;;;5.95;5.35;;;32.00;99.80;;;;;;5115802;28;20190;-53
2023/06/10 11:40:59;;;;;;;6.70;5.47;;;32.00;99.90;;;;;;5116055;28;20258;-52
2023/06/10 11:43:25;;;;;;;7.32;5.00;;;32.20;99.90;;;;;;5115796;28;20288;-52
2023/06/10 11:45:55;;;;;;;7.68;5.50;;;32.30;99.90;;;;;;5115941;28;20548;-52
2023/06/10 11:48:20;;;;;;;6.00;5.38;;;32.40;99.90;;;;;;5115842;28;20182;-52
2023/06/10 11:50:46;;;;;;;8.02;5.75;;;32.50;99.90;;;;;;5115796;28;20633;-52
2023/06/10 11:53:12;;;;;;;7.40;5.40;;;32.60;99.30;;;;;;5115524;28;20545;-53
2023/06/10 11:55:45;;;;;;;7.82;5.88;;;32.80;99.90;;;;;;5115726;28;20593;-52
2023/06/10 11:58:15;;;;;;;6.90;5.55;;;32.90;98.90;;;;;;5115484;28;20169;-52
2023/06/10 12:00:48;;;;;;;8.05;5.50;;;32.90;98.10;;;;;;5115657;28;20182;-53
2023/06/10 12:03:14;;;;;;;5.90;5.30;;;33.00;99.20;;;;;;5115445;28;20212;-52
2023/06/10 12:05:40;;;;;;;7.30;5.72;;;33.20;99.10;;;;;;5115288;28;20162;-52
2023/06/10 12:08:10;;;;;;;8.77;5.63;;;33.30;97.80;;;;;;5115485;28;20178;-53
2023/06/10 12:10:42;;;;;;;7.80;5.40;;;33.40;97.40;;;;;;5116008;28;20173;-52
2023/06/10 12:13:09;;;;;;;6.10;5.07;;;33.30;96.00;;;;;;5115069;28;20186;-52
2023/06/10 12:15:35;;;;;;;10.48;5.47;;;33.30;96.10;;;;;;5115352;28;20178;-53
2023/06/10 12:18:02;;;;;;;8.65;6.63;;;33.00;94.90;;;;;;5115338;28;20175;-53
2023/06/10 12:20:29;;;;;;;11.13;7.10;;;32.90;95.50;;;;;;5115084;28;20638;-52
2023/06/10 12:22:55;;;;;;;10.48;6.70;;;32.80;95.80;;;;;;5114888;28;20509;-51
2023/06/10 12:25:30;;;;;;;8.60;6.03;;;32.80;98.20;;;;;;5114880;28;20194;-52
2023/06/10 12:27:57;;;;;;;13.05;6.07;;;32.70;95.80;;;;;;5115512;28;20214;-52
2023/06/10 12:30:26;;;;;;;7.78;5.57;;;32.60;96.80;;;;;;5114904;28;20657;-52
2023/06/10 12:32:55;;;;;;;12.43;5.80;;;32.70;98.40;;;;;;5114698;28;20182;-51
2023/06/10 12:35:25;;;;;;;8.82;5.70;;;32.70;98.90;;;;;;5114577;28;20685;-52
2023/06/10 12:38:00;;;;;;;7.88;5.93;;;32.60;94.40;;;;;;5114590;28;20318;-53
2023/06/10 12:40:37;;;;;;;6.80;6.07;;;32.30;93.80;;;;;;5114578;28;20223;-52